Zell Am See, Austria

9:41 PM CEST on August 24, 2016 (GMT +0200)
Wald | | Change Station

Elev 2493 ft 47.29 °N, 12.93 °E | Updated 40 seconds ago

Clear
Clear
62.6 °F
Feels Like 62.6 °F
N
0.9
Wind Variable Wind from SSW
Gusts 2.5 mph

Today
High -- | Low -- °F
--% Chance of Precip.
Yesterday
High -- | Low -- °F
Precip. -- in
Pressure 30.21 in
Visibility -9999.0 miles
Clouds
Dew Point 57 °F
Humidity 81%
Rainfall 0.00 in
Snow Depth Not available.
6:17 AM 8:03 PM
Waning Gibbous, 54% visible
METAR LOWS 241920Z 29004KT CAVOK 19/15 Q1023 NOSIG
Pressure 30.21 in
Visibility -9999.0 miles
Clouds
Dew Point 57 °F
Humidity 81%
Rainfall 0.00 in
Snow Depth Not available.
6:17 AM 8:03 PM
Waning Gibbous, 54% visible
METAR LOWS 241920Z 29004KT CAVOK 19/15 Q1023 NOSIG

10-Day Weather Forecast

×

Almanac

Astronomy

Aug. 24, 2016 Rise Set
Actual Time
Civil Twilight
Nautical Twilight
Astronomical Twilight
Moon
Length of Visible Light
Length of Day
Tomorrow will be .
, % of the Moon is Illuminated

Today's Extremes

Country Highs Country Lows

Community

WunderPhotos

Upload Photos

1,934,690 photos uploaded!

WunderBlog® & News

Nearby

Air Quality

  Air Quality AQ Index Pollutant
Not available.

Snow Depth

Station Depth Elevation

Earthquake Activity

City Distance Mag. Time & Date
Minimum magnitude displayed is 2.5.

Coastal Water Temperatures

Place Temperature

Stations

Nearby Weather Stations

Station Location Temp. Windchill Dew Point Humidity Wind Precip. Elev Updated Type